sensor_id;sensor_type;location;lat;lon;timestamp;temperature;humidity
57566;DHT22;63999;43.882;-0.310;2023-05-18T00:02:02;14.20;61.00
57566;DHT22;63999;43.882;-0.310;2023-05-18T00:04:29;14.20;61.50
57566;DHT22;63999;43.882;-0.310;2023-05-18T00:06:57;14.20;60.70
57566;DHT22;63999;43.882;-0.310;2023-05-18T00:09:28;14.10;60.70
57566;DHT22;63999;43.882;-0.310;2023-05-18T00:11:55;14.10;61.00
57566;DHT22;63999;43.882;-0.310;2023-05-18T00:14:22;14.10;60.60
57566;DHT22;63999;43.882;-0.310;2023-05-18T00:16:48;14.00;60.60
57566;DHT22;63999;43.882;-0.310;2023-05-18T00:19:14;14.00;60.70
57566;DHT22;63999;43.882;-0.310;2023-05-18T00:21:41;13.90;60.70
57566;DHT22;63999;43.882;-0.310;2023-05-18T00:24:08;13.90;60.70
57566;DHT22;63999;43.882;-0.310;2023-05-18T00:26:41;13.90;60.80
57566;DHT22;63999;43.882;-0.310;2023-05-18T00:29:08;13.90;60.70
57566;DHT22;63999;43.882;-0.310;2023-05-18T00:31:35;13.90;60.80
57566;DHT22;63999;43.882;-0.310;2023-05-18T00:34:04;13.80;60.80
57566;DHT22;63999;43.882;-0.310;2023-05-18T00:36:30;13.70;61.00
57566;DHT22;63999;43.882;-0.310;2023-05-18T00:38:59;13.80;61.50
57566;DHT22;63999;43.882;-0.310;2023-05-18T00:41:26;13.80;61.10
57566;DHT22;63999;43.882;-0.310;2023-05-18T00:43:56;13.70;61.40
57566;DHT22;63999;43.882;-0.310;2023-05-18T00:46:23;13.60;61.40
57566;DHT22;63999;43.882;-0.310;2023-05-18T00:48:49;13.60;61.60
57566;DHT22;63999;43.882;-0.310;2023-05-18T00:51:20;13.60;61.70
57566;DHT22;63999;43.882;-0.310;2023-05-18T00:53:51;13.60;61.80
57566;DHT22;63999;43.882;-0.310;2023-05-18T00:56:18;13.60;61.60
57566;DHT22;63999;43.882;-0.310;2023-05-18T00:58:44;13.50;61.70
57566;DHT22;63999;43.882;-0.310;2023-05-18T01:01:12;13.50;61.90
57566;DHT22;63999;43.882;-0.310;2023-05-18T01:03:39;13.50;62.00
57566;DHT22;63999;43.882;-0.310;2023-05-18T01:06:06;13.50;62.00
57566;DHT22;63999;43.882;-0.310;2023-05-18T01:08:33;13.50;63.10
57566;DHT22;63999;43.882;-0.310;2023-05-18T01:11:13;13.60;62.00
57566;DHT22;63999;43.882;-0.310;2023-05-18T01:16:23;13.50;62.20
57566;DHT22;63999;43.882;-0.310;2023-05-18T01:19:02;13.40;62.20
57566;DHT22;63999;43.882;-0.310;2023-05-18T01:24:14;13.30;62.50
57566;DHT22;63999;43.882;-0.310;2023-05-18T01:26:46;13.30;62.30
57566;DHT22;63999;43.882;-0.310;2023-05-18T01:29:16;13.30;62.60
57566;DHT22;63999;43.882;-0.310;2023-05-18T01:31:45;13.30;62.70
57566;DHT22;63999;43.882;-0.310;2023-05-18T01:34:11;13.20;62.80
57566;DHT22;63999;43.882;-0.310;2023-05-18T01:36:37;13.20;62.90
57566;DHT22;63999;43.882;-0.310;2023-05-18T01:39:02;13.10;63.00
57566;DHT22;63999;43.882;-0.310;2023-05-18T01:41:30;13.10;63.00
57566;DHT22;63999;43.882;-0.310;2023-05-18T01:44:18;13.10;63.00
57566;DHT22;63999;43.882;-0.310;2023-05-18T01:47:03;13.10;62.90
57566;DHT22;63999;43.882;-0.310;2023-05-18T01:50:16;13.10;63.10
57566;DHT22;63999;43.882;-0.310;2023-05-18T01:55:48;13.00;63.20
57566;DHT22;63999;43.882;-0.310;2023-05-18T01:58:16;13.00;63.20
57566;DHT22;63999;43.882;-0.310;2023-05-18T02:00:43;12.90;63.00
57566;DHT22;63999;43.882;-0.310;2023-05-18T02:03:11;12.90;63.20
57566;DHT22;63999;43.882;-0.310;2023-05-18T02:05:38;13.00;63.20
57566;DHT22;63999;43.882;-0.310;2023-05-18T02:08:04;12.90;63.00
57566;DHT22;63999;43.882;-0.310;2023-05-18T02:10:29;12.90;63.30
57566;DHT22;63999;43.882;-0.310;2023-05-18T02:12:55;12.90;63.10
57566;DHT22;63999;43.882;-0.310;2023-05-18T02:15:21;12.90;63.20
57566;DHT22;63999;43.882;-0.310;2023-05-18T02:17:47;12.90;63.30
57566;DHT22;63999;43.882;-0.310;2023-05-18T02:20:13;12.90;63.30
57566;DHT22;63999;43.882;-0.310;2023-05-18T02:22:43;12.80;63.40
57566;DHT22;63999;43.882;-0.310;2023-05-18T02:25:10;12.80;63.30
57566;DHT22;63999;43.882;-0.310;2023-05-18T02:27:36;12.80;63.00
57566;DHT22;63999;43.882;-0.310;2023-05-18T02:30:02;12.80;63.10
57566;DHT22;63999;43.882;-0.310;2023-05-18T02:32:36;12.80;62.50
57566;DHT22;63999;43.882;-0.310;2023-05-18T02:35:07;12.70;62.70
57566;DHT22;63999;43.882;-0.310;2023-05-18T02:37:34;12.70;62.40
57566;DHT22;63999;43.882;-0.310;2023-05-18T02:40:11;12.70;62.60
57566;DHT22;63999;43.882;-0.310;2023-05-18T02:42:37;12.70;62.90
57566;DHT22;63999;43.882;-0.310;2023-05-18T02:45:03;12.60;62.70
57566;DHT22;63999;43.882;-0.310;2023-05-18T02:47:29;12.60;62.80
57566;DHT22;63999;43.882;-0.310;2023-05-18T02:49:55;12.50;62.30
57566;DHT22;63999;43.882;-0.310;2023-05-18T02:52:22;12.50;62.70
57566;DHT22;63999;43.882;-0.310;2023-05-18T02:54:48;12.50;62.50
57566;DHT22;63999;43.882;-0.310;2023-05-18T02:57:13;12.50;62.30
57566;DHT22;63999;43.882;-0.310;2023-05-18T02:59:39;12.50;62.70
57566;DHT22;63999;43.882;-0.310;2023-05-18T03:02:05;12.50;62.30
57566;DHT22;63999;43.882;-0.310;2023-05-18T03:04:31;12.50;62.50
57566;DHT22;63999;43.882;-0.310;2023-05-18T03:06:57;12.50;62.80
57566;DHT22;63999;43.882;-0.310;2023-05-18T03:09:27;12.50;62.30
57566;DHT22;63999;43.882;-0.310;2023-05-18T03:11:53;12.50;62.40
57566;DHT22;63999;43.882;-0.310;2023-05-18T03:14:18;12.40;62.10
57566;DHT22;63999;43.882;-0.310;2023-05-18T03:16:44;12.40;63.40
57566;DHT22;63999;43.882;-0.310;2023-05-18T03:19:10;12.50;64.50
57566;DHT22;63999;43.882;-0.310;2023-05-18T03:21:38;12.50;61.70
57566;DHT22;63999;43.882;-0.310;2023-05-18T03:24:04;12.50;61.70
57566;DHT22;63999;43.882;-0.310;2023-05-18T03:26:30;12.40;61.90
57566;DHT22;63999;43.882;-0.310;2023-05-18T03:28:57;12.30;62.50
57566;DHT22;63999;43.882;-0.310;2023-05-18T03:31:23;12.20;62.30
57566;DHT22;63999;43.882;-0.310;2023-05-18T03:33:49;12.10;62.90
57566;DHT22;63999;43.882;-0.310;2023-05-18T03:36:15;12.10;62.20
57566;DHT22;63999;43.882;-0.310;2023-05-18T03:38:41;12.10;62.60
57566;DHT22;63999;43.882;-0.310;2023-05-18T03:41:10;12.00;63.40
57566;DHT22;63999;43.882;-0.310;2023-05-18T03:43:36;12.00;63.20
57566;DHT22;63999;43.882;-0.310;2023-05-18T03:46:02;11.90;63.20
57566;DHT22;63999;43.882;-0.310;2023-05-18T03:48:28;11.90;62.80
57566;DHT22;63999;43.882;-0.310;2023-05-18T03:50:54;11.90;63.40
57566;DHT22;63999;43.882;-0.310;2023-05-18T03:53:20;11.90;63.00
57566;DHT22;63999;43.882;-0.310;2023-05-18T03:55:47;11.80;63.30
57566;DHT22;63999;43.882;-0.310;2023-05-18T03:58:16;11.80;63.00
57566;DHT22;63999;43.882;-0.310;2023-05-18T04:00:44;11.90;63.10
57566;DHT22;63999;43.882;-0.310;2023-05-18T04:03:12;11.80;63.00
57566;DHT22;63999;43.882;-0.310;2023-05-18T04:05:42;11.80;62.50
57566;DHT22;63999;43.882;-0.310;2023-05-18T04:08:10;11.80;62.40
57566;DHT22;63999;43.882;-0.310;2023-05-18T04:10:41;11.80;62.50
57566;DHT22;63999;43.882;-0.310;2023-05-18T04:13:07;11.70;62.50
57566;DHT22;63999;43.882;-0.310;2023-05-18T04:15:32;11.70;62.80
57566;DHT22;63999;43.882;-0.310;2023-05-18T04:17:58;11.70;62.90
57566;DHT22;63999;43.882;-0.310;2023-05-18T04:20:27;11.70;62.10
57566;DHT22;63999;43.882;-0.310;2023-05-18T04:22:54;11.70;63.20
57566;DHT22;63999;43.882;-0.310;2023-05-18T04:25:22;11.50;63.10
57566;DHT22;63999;43.882;-0.310;2023-05-18T04:27:55;11.50;63.20
57566;DHT22;63999;43.882;-0.310;2023-05-18T04:30:21;11.50;62.60
57566;DHT22;63999;43.882;-0.310;2023-05-18T04:32:48;11.50;63.00
57566;DHT22;63999;43.882;-0.310;2023-05-18T04:35:15;11.50;62.60
57566;DHT22;63999;43.882;-0.310;2023-05-18T04:37:51;11.50;62.50
57566;DHT22;63999;43.882;-0.310;2023-05-18T04:40:19;11.40;63.20
57566;DHT22;63999;43.882;-0.310;2023-05-18T04:42:45;11.60;62.30
57566;DHT22;63999;43.882;-0.310;2023-05-18T04:45:18;11.60;61.60
57566;DHT22;63999;43.882;-0.310;2023-05-18T04:47:48;11.50;62.10
57566;DHT22;63999;43.882;-0.310;2023-05-18T04:50:18;11.50;61.70
57566;DHT22;63999;43.882;-0.310;2023-05-18T04:52:47;11.50;62.30
57566;DHT22;63999;43.882;-0.310;2023-05-18T04:55:17;11.40;63.00
57566;DHT22;63999;43.882;-0.310;2023-05-18T04:57:49;11.40;63.30
57566;DHT22;63999;43.882;-0.310;2023-05-18T05:00:15;11.30;63.20
57566;DHT22;63999;43.882;-0.310;2023-05-18T05:02:41;11.30;63.40
57566;DHT22;63999;43.882;-0.310;2023-05-18T05:05:07;11.20;63.10
57566;DHT22;63999;43.882;-0.310;2023-05-18T05:07:33;11.20;64.30
57566;DHT22;63999;43.882;-0.310;2023-05-18T05:09:59;11.10;63.90
57566;DHT22;63999;43.882;-0.310;2023-05-18T05:12:26;11.10;63.40
57566;DHT22;63999;43.882;-0.310;2023-05-18T05:14:53;11.10;62.70
57566;DHT22;63999;43.882;-0.310;2023-05-18T05:17:19;11.10;64.20
57566;DHT22;63999;43.882;-0.310;2023-05-18T05:19:46;11.10;64.00
57566;DHT22;63999;43.882;-0.310;2023-05-18T05:22:11;11.10;63.00
57566;DHT22;63999;43.882;-0.310;2023-05-18T05:24:37;11.10;63.90
57566;DHT22;63999;43.882;-0.310;2023-05-18T05:27:03;11.10;63.50
57566;DHT22;63999;43.882;-0.310;2023-05-18T05:29:30;11.10;63.40
57566;DHT22;63999;43.882;-0.310;2023-05-18T05:31:55;11.10;63.70
57566;DHT22;63999;43.882;-0.310;2023-05-18T05:34:21;11.10;63.90
57566;DHT22;63999;43.882;-0.310;2023-05-18T05:36:48;11.10;64.60
57566;DHT22;63999;43.882;-0.310;2023-05-18T05:39:14;11.10;63.60
57566;DHT22;63999;43.882;-0.310;2023-05-18T05:41:40;11.00;64.30
57566;DHT22;63999;43.882;-0.310;2023-05-18T05:44:06;11.00;64.40
57566;DHT22;63999;43.882;-0.310;2023-05-18T05:46:36;11.00;65.10
57566;DHT22;63999;43.882;-0.310;2023-05-18T05:49:01;11.10;64.30
57566;DHT22;63999;43.882;-0.310;2023-05-18T05:51:30;11.10;64.70
57566;DHT22;63999;43.882;-0.310;2023-05-18T05:53:56;11.00;63.60
57566;DHT22;63999;43.882;-0.310;2023-05-18T05:56:23;11.00;64.60
57566;DHT22;63999;43.882;-0.310;2023-05-18T05:58:51;11.10;64.80
57566;DHT22;63999;43.882;-0.310;2023-05-18T06:01:17;11.00;63.60
57566;DHT22;63999;43.882;-0.310;2023-05-18T06:03:43;11.00;63.90
57566;DHT22;63999;43.882;-0.310;2023-05-18T06:06:09;11.00;63.00
57566;DHT22;63999;43.882;-0.310;2023-05-18T06:08:36;11.10;65.00
57566;DHT22;63999;43.882;-0.310;2023-05-18T06:11:05;11.10;64.00
57566;DHT22;63999;43.882;-0.310;2023-05-18T06:13:31;11.10;64.00
57566;DHT22;63999;43.882;-0.310;2023-05-18T06:15:57;11.30;63.40
57566;DHT22;63999;43.882;-0.310;2023-05-18T06:18:23;11.20;64.00
57566;DHT22;63999;43.882;-0.310;2023-05-18T06:20:49;11.20;63.10
57566;DHT22;63999;43.882;-0.310;2023-05-18T06:23:15;11.30;62.70
57566;DHT22;63999;43.882;-0.310;2023-05-18T06:25:47;11.30;63.90
57566;DHT22;63999;43.882;-0.310;2023-05-18T06:28:14;11.30;63.60
57566;DHT22;63999;43.882;-0.310;2023-05-18T06:30:40;11.30;64.30
57566;DHT22;63999;43.882;-0.310;2023-05-18T06:33:07;11.30;63.70
57566;DHT22;63999;43.882;-0.310;2023-05-18T06:35:33;11.30;64.20
57566;DHT22;63999;43.882;-0.310;2023-05-18T06:37:59;11.40;63.40
57566;DHT22;63999;43.882;-0.310;2023-05-18T06:40:25;11.40;65.50
57566;DHT22;63999;43.882;-0.310;2023-05-18T06:42:51;11.40;64.40
57566;DHT22;63999;43.882;-0.310;2023-05-18T06:45:19;11.40;64.70
57566;DHT22;63999;43.882;-0.310;2023-05-18T06:47:46;11.40;64.90
57566;DHT22;63999;43.882;-0.310;2023-05-18T06:50:14;11.50;64.50
57566;DHT22;63999;43.882;-0.310;2023-05-18T06:52:40;11.50;64.70
57566;DHT22;63999;43.882;-0.310;2023-05-18T06:55:06;11.60;65.10
57566;DHT22;63999;43.882;-0.310;2023-05-18T06:57:33;11.60;64.60
57566;DHT22;63999;43.882;-0.310;2023-05-18T06:59:59;11.50;64.80
57566;DHT22;63999;43.882;-0.310;2023-05-18T07:02:25;11.60;64.50
57566;DHT22;63999;43.882;-0.310;2023-05-18T07:04:51;11.70;65.00
57566;DHT22;63999;43.882;-0.310;2023-05-18T07:07:17;11.70;64.50
57566;DHT22;63999;43.882;-0.310;2023-05-18T07:09:43;11.60;65.20
57566;DHT22;63999;43.882;-0.310;2023-05-18T07:12:11;11.70;65.40
57566;DHT22;63999;43.882;-0.310;2023-05-18T07:14:37;11.90;64.70
57566;DHT22;63999;43.882;-0.310;2023-05-18T07:17:03;11.90;64.60
57566;DHT22;63999;43.882;-0.310;2023-05-18T07:19:29;11.90;64.40
57566;DHT22;63999;43.882;-0.310;2023-05-18T07:21:55;11.90;64.70
57566;DHT22;63999;43.882;-0.310;2023-05-18T07:24:21;12.00;64.90
57566;DHT22;63999;43.882;-0.310;2023-05-18T07:26:47;12.00;65.30
57566;DHT22;63999;43.882;-0.310;2023-05-18T07:29:13;11.90;64.70
57566;DHT22;63999;43.882;-0.310;2023-05-18T07:31:39;12.00;64.50
57566;DHT22;63999;43.882;-0.310;2023-05-18T07:34:06;12.00;64.70
57566;DHT22;63999;43.882;-0.310;2023-05-18T07:36:33;12.00;65.00
57566;DHT22;63999;43.882;-0.310;2023-05-18T07:38:59;12.00;65.60
57566;DHT22;63999;43.882;-0.310;2023-05-18T07:41:25;12.10;64.80
57566;DHT22;63999;43.882;-0.310;2023-05-18T07:43:52;12.10;65.30
57566;DHT22;63999;43.882;-0.310;2023-05-18T07:46:18;12.10;65.80
57566;DHT22;63999;43.882;-0.310;2023-05-18T07:48:44;12.20;65.20
57566;DHT22;63999;43.882;-0.310;2023-05-18T07:51:11;12.20;65.00
57566;DHT22;63999;43.882;-0.310;2023-05-18T07:53:37;12.20;65.90
57566;DHT22;63999;43.882;-0.310;2023-05-18T07:56:04;12.30;65.00
57566;DHT22;63999;43.882;-0.310;2023-05-18T07:58:30;12.50;65.60
57566;DHT22;63999;43.882;-0.310;2023-05-18T08:00:56;12.50;64.80
57566;DHT22;63999;43.882;-0.310;2023-05-18T08:03:22;12.40;65.30
57566;DHT22;63999;43.882;-0.310;2023-05-18T08:05:48;12.50;65.90
57566;DHT22;63999;43.882;-0.310;2023-05-18T08:08:13;12.50;67.90
57566;DHT22;63999;43.882;-0.310;2023-05-18T08:10:42;12.80;65.00
57566;DHT22;63999;43.882;-0.310;2023-05-18T08:13:08;12.70;66.30
57566;DHT22;63999;43.882;-0.310;2023-05-18T08:15:34;12.90;65.80
57566;DHT22;63999;43.882;-0.310;2023-05-18T08:18:01;12.90;66.10
57566;DHT22;63999;43.882;-0.310;2023-05-18T08:20:27;12.80;65.90
57566;DHT22;63999;43.882;-0.310;2023-05-18T08:22:55;13.00;66.50
57566;DHT22;63999;43.882;-0.310;2023-05-18T08:25:48;13.10;66.60
57566;DHT22;63999;43.882;-0.310;2023-05-18T08:28:24;13.30;65.40
57566;DHT22;63999;43.882;-0.310;2023-05-18T08:30:51;13.30;66.00
57566;DHT22;63999;43.882;-0.310;2023-05-18T08:33:17;13.30;66.10
57566;DHT22;63999;43.882;-0.310;2023-05-18T08:35:43;13.50;66.00
57566;DHT22;63999;43.882;-0.310;2023-05-18T08:38:08;13.50;64.70
57566;DHT22;63999;43.882;-0.310;2023-05-18T08:43:49;13.60;65.90
57566;DHT22;63999;43.882;-0.310;2023-05-18T08:46:25;13.60;66.10
57566;DHT22;63999;43.882;-0.310;2023-05-18T08:48:54;13.60;66.10
57566;DHT22;63999;43.882;-0.310;2023-05-18T08:51:32;13.70;66.70
57566;DHT22;63999;43.882;-0.310;2023-05-18T08:54:03;13.70;65.10
57566;DHT22;63999;43.882;-0.310;2023-05-18T08:56:32;13.60;65.30
57566;DHT22;63999;43.882;-0.310;2023-05-18T08:59:04;13.60;65.60
57566;DHT22;63999;43.882;-0.310;2023-05-18T09:01:42;13.60;65.50
57566;DHT22;63999;43.882;-0.310;2023-05-18T09:04:09;13.70;66.00
57566;DHT22;63999;43.882;-0.310;2023-05-18T09:06:36;13.90;65.10
57566;DHT22;63999;43.882;-0.310;2023-05-18T09:09:02;13.90;65.60
57566;DHT22;63999;43.882;-0.310;2023-05-18T09:11:33;13.90;66.00
57566;DHT22;63999;43.882;-0.310;2023-05-18T09:14:01;13.90;64.60
57566;DHT22;63999;43.882;-0.310;2023-05-18T09:16:28;14.10;64.50
57566;DHT22;63999;43.882;-0.310;2023-05-18T09:18:56;14.00;64.90
57566;DHT22;63999;43.882;-0.310;2023-05-18T09:21:23;14.00;65.00
57566;DHT22;63999;43.882;-0.310;2023-05-18T09:23:49;14.00;65.50
57566;DHT22;63999;43.882;-0.310;2023-05-18T09:26:16;14.00;65.20
57566;DHT22;63999;43.882;-0.310;2023-05-18T09:28:42;14.00;63.90
57566;DHT22;63999;43.882;-0.310;2023-05-18T09:31:16;14.10;63.70
57566;DHT22;63999;43.882;-0.310;2023-05-18T09:34:01;14.10;64.30
57566;DHT22;63999;43.882;-0.310;2023-05-18T09:36:31;14.10;64.60
57566;DHT22;63999;43.882;-0.310;2023-05-18T09:38:59;14.10;64.30
57566;DHT22;63999;43.882;-0.310;2023-05-18T09:41:26;14.20;64.50
57566;DHT22;63999;43.882;-0.310;2023-05-18T09:43:53;14.20;64.00
57566;DHT22;63999;43.882;-0.310;2023-05-18T09:46:20;14.20;64.20
57566;DHT22;63999;43.882;-0.310;2023-05-18T09:48:52;14.20;63.90
57566;DHT22;63999;43.882;-0.310;2023-05-18T09:51:18;14.30;64.20
57566;DHT22;63999;43.882;-0.310;2023-05-18T09:53:54;14.30;64.20
57566;DHT22;63999;43.882;-0.310;2023-05-18T09:56:22;14.20;64.20
57566;DHT22;63999;43.882;-0.310;2023-05-18T09:58:48;14.20;64.00
57566;DHT22;63999;43.882;-0.310;2023-05-18T10:01:14;14.20;63.40
57566;DHT22;63999;43.882;-0.310;2023-05-18T10:03:40;14.20;64.20
57566;DHT22;63999;43.882;-0.310;2023-05-18T10:06:10;14.30;63.80
57566;DHT22;63999;43.882;-0.310;2023-05-18T10:08:40;14.20;64.60
57566;DHT22;63999;43.882;-0.310;2023-05-18T10:11:09;14.20;64.40
57566;DHT22;63999;43.882;-0.310;2023-05-18T10:13:36;14.20;64.30
57566;DHT22;63999;43.882;-0.310;2023-05-18T10:16:03;14.30;64.10
57566;DHT22;63999;43.882;-0.310;2023-05-18T10:18:35;14.30;63.60
57566;DHT22;63999;43.882;-0.310;2023-05-18T10:21:03;14.30;64.20
57566;DHT22;63999;43.882;-0.310;2023-05-18T10:23:32;14.30;64.20
57566;DHT22;63999;43.882;-0.310;2023-05-18T10:25:59;14.30;64.10
57566;DHT22;63999;43.882;-0.310;2023-05-18T10:28:30;14.40;63.70
57566;DHT22;63999;43.882;-0.310;2023-05-18T10:30:59;14.40;64.20
57566;DHT22;63999;43.882;-0.310;2023-05-18T10:33:26;14.40;64.40
57566;DHT22;63999;43.882;-0.310;2023-05-18T10:35:53;14.40;64.60
57566;DHT22;63999;43.882;-0.310;2023-05-18T10:38:22;14.50;64.10
57566;DHT22;63999;43.882;-0.310;2023-05-18T10:40:50;14.60;63.80
57566;DHT22;63999;43.882;-0.310;2023-05-18T10:43:21;14.60;63.80
57566;DHT22;63999;43.882;-0.310;2023-05-18T10:45:53;14.50;64.30
57566;DHT22;63999;43.882;-0.310;2023-05-18T10:48:21;14.50;64.50
57566;DHT22;63999;43.882;-0.310;2023-05-18T10:50:48;14.50;64.30
57566;DHT22;63999;43.882;-0.310;2023-05-18T10:53:25;14.50;63.90
57566;DHT22;63999;43.882;-0.310;2023-05-18T10:55:57;14.70;63.90
57566;DHT22;63999;43.882;-0.310;2023-05-18T10:58:25;14.70;64.00
57566;DHT22;63999;43.882;-0.310;2023-05-18T11:00:56;14.60;64.30
57566;DHT22;63999;43.882;-0.310;2023-05-18T11:03:24;14.70;64.30
57566;DHT22;63999;43.882;-0.310;2023-05-18T11:06:03;14.70;65.00
57566;DHT22;63999;43.882;-0.310;2023-05-18T11:08:33;14.70;64.50
57566;DHT22;63999;43.882;-0.310;2023-05-18T11:11:07;14.70;64.20
57566;DHT22;63999;43.882;-0.310;2023-05-18T11:13:34;14.70;63.80
57566;DHT22;63999;43.882;-0.310;2023-05-18T11:16:06;14.70;64.10
57566;DHT22;63999;43.882;-0.310;2023-05-18T11:18:34;14.90;62.80
57566;DHT22;63999;43.882;-0.310;2023-05-18T11:21:00;15.00;62.30
57566;DHT22;63999;43.882;-0.310;2023-05-18T11:23:31;15.00;63.20
57566;DHT22;63999;43.882;-0.310;2023-05-18T11:26:03;14.90;63.70
57566;DHT22;63999;43.882;-0.310;2023-05-18T11:28:50;15.00;63.60
57566;DHT22;63999;43.882;-0.310;2023-05-18T11:31:20;15.00;63.30
57566;DHT22;63999;43.882;-0.310;2023-05-18T11:34:44;15.00;63.60
57566;DHT22;63999;43.882;-0.310;2023-05-18T11:37:15;15.00;63.90
57566;DHT22;63999;43.882;-0.310;2023-05-18T11:39:51;15.20;63.50
57566;DHT22;63999;43.882;-0.310;2023-05-18T11:42:18;15.20;63.60
57566;DHT22;63999;43.882;-0.310;2023-05-18T11:44:56;15.00;64.00
57566;DHT22;63999;43.882;-0.310;2023-05-18T11:47:31;15.10;63.40
57566;DHT22;63999;43.882;-0.310;2023-05-18T11:49:58;15.20;63.20
57566;DHT22;63999;43.882;-0.310;2023-05-18T11:52:29;15.20;63.70
57566;DHT22;63999;43.882;-0.310;2023-05-18T11:54:59;15.50;61.40
57566;DHT22;63999;43.882;-0.310;2023-05-18T12:00:13;15.50;62.10
57566;DHT22;63999;43.882;-0.310;2023-05-18T12:02:48;15.60;60.70
57566;DHT22;63999;43.882;-0.310;2023-05-18T12:05:48;15.70;61.10
57566;DHT22;63999;43.882;-0.310;2023-05-18T12:08:23;15.60;62.00
57566;DHT22;63999;43.882;-0.310;2023-05-18T12:10:55;15.40;63.10
57566;DHT22;63999;43.882;-0.310;2023-05-18T12:13:22;15.30;63.00
57566;DHT22;63999;43.882;-0.310;2023-05-18T12:15:49;15.50;62.80
57566;DHT22;63999;43.882;-0.310;2023-05-18T12:18:20;15.70;60.30
57566;DHT22;63999;43.882;-0.310;2023-05-18T12:20:49;15.80;61.00
57566;DHT22;63999;43.882;-0.310;2023-05-18T12:23:33;15.60;61.80
57566;DHT22;63999;43.882;-0.310;2023-05-18T12:26:01;15.60;62.10
57566;DHT22;63999;43.882;-0.310;2023-05-18T12:28:34;15.60;61.80
57566;DHT22;63999;43.882;-0.310;2023-05-18T12:31:04;15.70;62.10
57566;DHT22;63999;43.882;-0.310;2023-05-18T12:33:42;15.60;62.10
57566;DHT22;63999;43.882;-0.310;2023-05-18T12:36:20;15.60;62.70
57566;DHT22;63999;43.882;-0.310;2023-05-18T12:38:54;15.80;62.00
57566;DHT22;63999;43.882;-0.310;2023-05-18T12:41:24;15.60;63.00
57566;DHT22;63999;43.882;-0.310;2023-05-18T12:43:52;15.50;62.90
57566;DHT22;63999;43.882;-0.310;2023-05-18T12:46:23;15.40;63.90
57566;DHT22;63999;43.882;-0.310;2023-05-18T12:48:59;15.60;63.40
57566;DHT22;63999;43.882;-0.310;2023-05-18T12:51:33;15.80;63.00
57566;DHT22;63999;43.882;-0.310;2023-05-18T12:54:08;15.80;63.00
57566;DHT22;63999;43.882;-0.310;2023-05-18T12:56:54;15.80;62.70
57566;DHT22;63999;43.882;-0.310;2023-05-18T12:59:27;15.90;62.00
57566;DHT22;63999;43.882;-0.310;2023-05-18T13:01:54;16.00;62.10
57566;DHT22;63999;43.882;-0.310;2023-05-18T13:04:21;16.10;61.70
57566;DHT22;63999;43.882;-0.310;2023-05-18T13:06:48;16.10;62.70
57566;DHT22;63999;43.882;-0.310;2023-05-18T13:09:15;16.00;62.50
57566;DHT22;63999;43.882;-0.310;2023-05-18T13:11:52;16.00;62.20
57566;DHT22;63999;43.882;-0.310;2023-05-18T13:14:24;15.90;62.70
57566;DHT22;63999;43.882;-0.310;2023-05-18T13:16:51;15.80;62.40
57566;DHT22;63999;43.882;-0.310;2023-05-18T13:19:18;16.00;62.50
57566;DHT22;63999;43.882;-0.310;2023-05-18T13:21:45;16.10;62.40
57566;DHT22;63999;43.882;-0.310;2023-05-18T13:24:11;16.10;62.30
57566;DHT22;63999;43.882;-0.310;2023-05-18T13:26:37;16.30;61.70
57566;DHT22;63999;43.882;-0.310;2023-05-18T13:29:04;16.10;62.60
57566;DHT22;63999;43.882;-0.310;2023-05-18T13:31:32;16.20;61.90
57566;DHT22;63999;43.882;-0.310;2023-05-18T13:33:58;16.20;62.00
57566;DHT22;63999;43.882;-0.310;2023-05-18T13:36:24;16.20;62.10
57566;DHT22;63999;43.882;-0.310;2023-05-18T13:38:54;16.00;63.00
57566;DHT22;63999;43.882;-0.310;2023-05-18T13:41:20;15.90;62.90
57566;DHT22;63999;43.882;-0.310;2023-05-18T13:43:46;16.00;63.30
57566;DHT22;63999;43.882;-0.310;2023-05-18T13:46:14;16.00;63.20
57566;DHT22;63999;43.882;-0.310;2023-05-18T13:48:44;16.10;62.70
57566;DHT22;63999;43.882;-0.310;2023-05-18T13:51:10;16.20;62.20
57566;DHT22;63999;43.882;-0.310;2023-05-18T13:53:37;16.10;62.90
57566;DHT22;63999;43.882;-0.310;2023-05-18T13:56:03;16.10;63.40
57566;DHT22;63999;43.882;-0.310;2023-05-18T13:58:29;16.20;62.80
57566;DHT22;63999;43.882;-0.310;2023-05-18T14:00:56;16.20;62.10
57566;DHT22;63999;43.882;-0.310;2023-05-18T14:03:22;16.40;61.50
57566;DHT22;63999;43.882;-0.310;2023-05-18T14:05:49;16.40;61.50
57566;DHT22;63999;43.882;-0.310;2023-05-18T14:08:17;16.40;62.60
57566;DHT22;63999;43.882;-0.310;2023-05-18T14:10:43;16.20;62.90
57566;DHT22;63999;43.882;-0.310;2023-05-18T14:13:09;16.20;62.30
57566;DHT22;63999;43.882;-0.310;2023-05-18T14:15:35;16.40;62.10
57566;DHT22;63999;43.882;-0.310;2023-05-18T14:18:11;16.50;61.80
57566;DHT22;63999;43.882;-0.310;2023-05-18T14:20:41;16.40;62.30
57566;DHT22;63999;43.882;-0.310;2023-05-18T14:23:10;16.60;62.10
57566;DHT22;63999;43.882;-0.310;2023-05-18T14:25:36;16.60;62.10
57566;DHT22;63999;43.882;-0.310;2023-05-18T14:28:03;16.60;61.20
57566;DHT22;63999;43.882;-0.310;2023-05-18T14:30:29;16.70;61.20
57566;DHT22;63999;43.882;-0.310;2023-05-18T14:32:55;16.60;61.50
57566;DHT22;63999;43.882;-0.310;2023-05-18T14:35:21;16.40;62.60
57566;DHT22;63999;43.882;-0.310;2023-05-18T14:37:46;16.50;62.20
57566;DHT22;63999;43.882;-0.310;2023-05-18T14:40:13;16.60;61.90
57566;DHT22;63999;43.882;-0.310;2023-05-18T14:42:39;16.60;61.60
57566;DHT22;63999;43.882;-0.310;2023-05-18T14:45:06;16.60;62.20
57566;DHT22;63999;43.882;-0.310;2023-05-18T14:47:34;16.60;62.10
57566;DHT22;63999;43.882;-0.310;2023-05-18T14:50:00;16.70;61.20
57566;DHT22;63999;43.882;-0.310;2023-05-18T14:52:26;16.60;61.60
57566;DHT22;63999;43.882;-0.310;2023-05-18T14:54:53;16.50;62.10
57566;DHT22;63999;43.882;-0.310;2023-05-18T14:57:19;16.50;62.70
57566;DHT22;63999;43.882;-0.310;2023-05-18T14:59:45;16.60;62.70
57566;DHT22;63999;43.882;-0.310;2023-05-18T15:02:14;16.70;62.20
57566;DHT22;63999;43.882;-0.310;2023-05-18T15:04:41;16.60;61.20
57566;DHT22;63999;43.882;-0.310;2023-05-18T15:07:07;16.50;62.90
57566;DHT22;63999;43.882;-0.310;2023-05-18T15:09:33;16.70;63.20
57566;DHT22;63999;43.882;-0.310;2023-05-18T15:12:01;16.70;62.50
57566;DHT22;63999;43.882;-0.310;2023-05-18T15:14:27;16.80;62.00
57566;DHT22;63999;43.882;-0.310;2023-05-18T15:16:53;16.90;61.70
57566;DHT22;63999;43.882;-0.310;2023-05-18T15:19:22;16.90;61.20
57566;DHT22;63999;43.882;-0.310;2023-05-18T15:21:48;16.80;61.60
57566;DHT22;63999;43.882;-0.310;2023-05-18T15:24:14;16.80;61.90
57566;DHT22;63999;43.882;-0.310;2023-05-18T15:26:41;16.70;61.80
57566;DHT22;63999;43.882;-0.310;2023-05-18T15:29:08;16.70;62.20
57566;DHT22;63999;43.882;-0.310;2023-05-18T15:31:34;16.70;63.00
57566;DHT22;63999;43.882;-0.310;2023-05-18T15:34:04;16.70;62.80
57566;DHT22;63999;43.882;-0.310;2023-05-18T15:36:31;16.60;63.10
57566;DHT22;63999;43.882;-0.310;2023-05-18T15:38:58;16.50;62.40